sensor_id;sensor_type;location;lat;lon;timestamp;P1;durP1;ratioP1;P2;durP2;ratioP2
49101;SDS011;34913;47.520;19.186;2022-12-24T00:01:14;59.20;;;30.23;;
49101;SDS011;34913;47.520;19.186;2022-12-24T00:03:39;55.10;;;29.13;;
49101;SDS011;34913;47.520;19.186;2022-12-24T00:06:06;57.90;;;29.08;;
49101;SDS011;34913;47.520;19.186;2022-12-24T00:08:32;55.92;;;27.95;;
49101;SDS011;34913;47.520;19.186;2022-12-24T00:10:57;51.38;;;28.00;;
49101;SDS011;34913;47.520;19.186;2022-12-24T00:13:23;51.33;;;27.25;;
49101;SDS011;34913;47.520;19.186;2022-12-24T00:15:49;51.97;;;27.85;;
49101;SDS011;34913;47.520;19.186;2022-12-24T00:18:14;51.97;;;27.23;;
49101;SDS011;34913;47.520;19.186;2022-12-24T00:20:40;50.80;;;26.92;;
49101;SDS011;34913;47.520;19.186;2022-12-24T00:23:06;50.08;;;26.33;;
49101;SDS011;34913;47.520;19.186;2022-12-24T00:25:31;47.92;;;26.85;;
49101;SDS011;34913;47.520;19.186;2022-12-24T00:27:57;44.05;;;24.65;;
49101;SDS011;34913;47.520;19.186;2022-12-24T00:30:22;46.53;;;26.50;;
49101;SDS011;34913;47.520;19.186;2022-12-24T00:32:47;46.17;;;25.98;;
49101;SDS011;34913;47.520;19.186;2022-12-24T00:35:13;51.00;;;26.08;;
49101;SDS011;34913;47.520;19.186;2022-12-24T00:37:38;50.72;;;27.02;;
49101;SDS011;34913;47.520;19.186;2022-12-24T00:40:04;50.53;;;27.05;;
49101;SDS011;34913;47.520;19.186;2022-12-24T00:42:30;54.40;;;28.35;;
49101;SDS011;34913;47.520;19.186;2022-12-24T00:44:55;48.95;;;27.00;;
49101;SDS011;34913;47.520;19.186;2022-12-24T00:47:21;51.38;;;27.52;;
49101;SDS011;34913;47.520;19.186;2022-12-24T00:49:46;50.70;;;27.42;;
49101;SDS011;34913;47.520;19.186;2022-12-24T00:52:11;49.15;;;27.05;;
49101;SDS011;34913;47.520;19.186;2022-12-24T00:54:37;53.75;;;27.92;;
49101;SDS011;34913;47.520;19.186;2022-12-24T00:57:02;56.40;;;29.13;;
49101;SDS011;34913;47.520;19.186;2022-12-24T00:59:27;62.95;;;30.25;;
49101;SDS011;34913;47.520;19.186;2022-12-24T01:01:53;57.67;;;29.23;;
49101;SDS011;34913;47.520;19.186;2022-12-24T01:04:18;53.88;;;28.42;;
49101;SDS011;34913;47.520;19.186;2022-12-24T01:07:02;54.22;;;28.00;;
49101;SDS011;34913;47.520;19.186;2022-12-24T01:09:28;56.05;;;27.67;;
49101;SDS011;34913;47.520;19.186;2022-12-24T01:11:53;55.38;;;29.20;;
49101;SDS011;34913;47.520;19.186;2022-12-24T01:14:18;62.42;;;29.30;;
49101;SDS011;34913;47.520;19.186;2022-12-24T01:16:44;60.00;;;28.67;;
49101;SDS011;34913;47.520;19.186;2022-12-24T01:19:10;56.65;;;28.33;;
49101;SDS011;34913;47.520;19.186;2022-12-24T01:21:35;57.00;;;28.75;;
49101;SDS011;34913;47.520;19.186;2022-12-24T01:24:00;60.53;;;29.27;;
49101;SDS011;34913;47.520;19.186;2022-12-24T01:26:26;59.78;;;31.27;;
49101;SDS011;34913;47.520;19.186;2022-12-24T01:28:52;65.88;;;30.48;;
49101;SDS011;34913;47.520;19.186;2022-12-24T01:31:18;64.45;;;31.55;;
49101;SDS011;34913;47.520;19.186;2022-12-24T01:33:44;71.68;;;33.72;;
49101;SDS011;34913;47.520;19.186;2022-12-24T01:36:11;62.38;;;31.50;;
49101;SDS011;34913;47.520;19.186;2022-12-24T01:38:37;66.07;;;32.22;;
49101;SDS011;34913;47.520;19.186;2022-12-24T01:41:03;65.47;;;34.22;;
49101;SDS011;34913;47.520;19.186;2022-12-24T01:43:47;65.68;;;33.35;;
49101;SDS011;34913;47.520;19.186;2022-12-24T01:46:25;68.00;;;34.33;;
49101;SDS011;34913;47.520;19.186;2022-12-24T01:48:59;67.25;;;35.15;;
49101;SDS011;34913;47.520;19.186;2022-12-24T01:51:34;63.08;;;34.53;;
49101;SDS011;34913;47.520;19.186;2022-12-24T01:54:10;64.55;;;34.17;;
49101;SDS011;34913;47.520;19.186;2022-12-24T01:56:43;63.20;;;33.33;;
49101;SDS011;34913;47.520;19.186;2022-12-24T01:59:18;65.00;;;34.97;;
49101;SDS011;34913;47.520;19.186;2022-12-24T02:01:45;65.60;;;34.90;;
49101;SDS011;34913;47.520;19.186;2022-12-24T02:06:57;65.03;;;35.85;;
49101;SDS011;34913;47.520;19.186;2022-12-24T02:09:23;60.45;;;35.95;;
49101;SDS011;34913;47.520;19.186;2022-12-24T02:11:49;62.15;;;36.22;;
49101;SDS011;34913;47.520;19.186;2022-12-24T02:14:14;60.30;;;35.78;;
49101;SDS011;34913;47.520;19.186;2022-12-24T02:16:53;64.88;;;36.00;;
49101;SDS011;34913;47.520;19.186;2022-12-24T02:37:58;60.08;;;33.75;;
49101;SDS011;34913;47.520;19.186;2022-12-24T02:40:45;62.25;;;35.03;;
49101;SDS011;34913;47.520;19.186;2022-12-24T02:43:18;57.33;;;32.50;;
49101;SDS011;34913;47.520;19.186;2022-12-24T02:45:50;61.70;;;34.67;;
49101;SDS011;34913;47.520;19.186;2022-12-24T02:48:19;60.25;;;34.67;;
49101;SDS011;34913;47.520;19.186;2022-12-24T02:50:56;61.08;;;35.45;;
49101;SDS011;34913;47.520;19.186;2022-12-24T02:53:23;62.88;;;34.33;;
49101;SDS011;34913;47.520;19.186;2022-12-24T03:06:49;68.15;;;36.83;;
49101;SDS011;34913;47.520;19.186;2022-12-24T03:12:18;66.35;;;36.70;;
49101;SDS011;34913;47.520;19.186;2022-12-24T03:14:48;61.20;;;35.20;;
49101;SDS011;34913;47.520;19.186;2022-12-24T03:17:16;64.15;;;35.35;;
49101;SDS011;34913;47.520;19.186;2022-12-24T03:19:43;58.83;;;35.50;;
49101;SDS011;34913;47.520;19.186;2022-12-24T03:22:09;64.88;;;35.78;;
49101;SDS011;34913;47.520;19.186;2022-12-24T03:24:36;62.17;;;34.72;;
49101;SDS011;34913;47.520;19.186;2022-12-24T03:27:02;60.25;;;34.25;;
49101;SDS011;34913;47.520;19.186;2022-12-24T03:29:30;56.42;;;33.30;;
49101;SDS011;34913;47.520;19.186;2022-12-24T03:32:00;58.20;;;32.70;;
49101;SDS011;34913;47.520;19.186;2022-12-24T03:34:29;57.67;;;32.28;;
49101;SDS011;34913;47.520;19.186;2022-12-24T03:36:54;61.67;;;33.55;;
49101;SDS011;34913;47.520;19.186;2022-12-24T03:39:20;60.08;;;33.92;;
49101;SDS011;34913;47.520;19.186;2022-12-24T03:41:46;58.40;;;32.17;;
49101;SDS011;34913;47.520;19.186;2022-12-24T03:44:12;54.80;;;32.17;;
49101;SDS011;34913;47.520;19.186;2022-12-24T03:46:37;56.72;;;32.88;;
49101;SDS011;34913;47.520;19.186;2022-12-24T03:49:03;57.38;;;32.00;;
49101;SDS011;34913;47.520;19.186;2022-12-24T03:51:28;54.80;;;30.70;;
49101;SDS011;34913;47.520;19.186;2022-12-24T03:53:56;54.00;;;31.67;;
49101;SDS011;34913;47.520;19.186;2022-12-24T03:56:22;55.17;;;30.73;;
49101;SDS011;34913;47.520;19.186;2022-12-24T03:58:48;56.10;;;31.02;;
49101;SDS011;34913;47.520;19.186;2022-12-24T04:01:14;53.10;;;32.03;;
49101;SDS011;34913;47.520;19.186;2022-12-24T04:03:40;56.08;;;31.20;;
49101;SDS011;34913;47.520;19.186;2022-12-24T04:06:09;52.58;;;30.98;;
49101;SDS011;34913;47.520;19.186;2022-12-24T04:08:37;51.97;;;30.33;;
49101;SDS011;34913;47.520;19.186;2022-12-24T04:11:04;50.65;;;29.02;;
49101;SDS011;34913;47.520;19.186;2022-12-24T04:13:31;52.15;;;28.88;;
49101;SDS011;34913;47.520;19.186;2022-12-24T04:16:04;51.05;;;29.27;;
49101;SDS011;34913;47.520;19.186;2022-12-24T04:18:31;48.10;;;27.90;;
49101;SDS011;34913;47.520;19.186;2022-12-24T04:20:57;46.50;;;27.38;;
49101;SDS011;34913;47.520;19.186;2022-12-24T04:23:23;50.83;;;29.42;;
49101;SDS011;34913;47.520;19.186;2022-12-24T04:25:48;47.97;;;28.38;;
49101;SDS011;34913;47.520;19.186;2022-12-24T04:28:14;44.35;;;26.98;;
49101;SDS011;34913;47.520;19.186;2022-12-24T04:30:40;43.28;;;25.90;;
49101;SDS011;34913;47.520;19.186;2022-12-24T04:33:06;43.15;;;26.35;;
49101;SDS011;34913;47.520;19.186;2022-12-24T04:35:31;44.55;;;26.25;;
49101;SDS011;34913;47.520;19.186;2022-12-24T04:37:57;46.35;;;28.27;;
49101;SDS011;34913;47.520;19.186;2022-12-24T04:40:23;45.42;;;28.27;;
49101;SDS011;34913;47.520;19.186;2022-12-24T04:42:48;52.08;;;30.42;;
49101;SDS011;34913;47.520;19.186;2022-12-24T04:45:18;48.88;;;29.52;;
49101;SDS011;34913;47.520;19.186;2022-12-24T04:47:43;50.40;;;29.00;;
49101;SDS011;34913;47.520;19.186;2022-12-24T04:50:09;45.38;;;27.63;;
49101;SDS011;34913;47.520;19.186;2022-12-24T04:52:35;47.90;;;28.90;;
49101;SDS011;34913;47.520;19.186;2022-12-24T04:55:01;47.85;;;29.20;;
49101;SDS011;34913;47.520;19.186;2022-12-24T04:57:27;50.35;;;30.33;;
49101;SDS011;34913;47.520;19.186;2022-12-24T04:59:56;49.92;;;29.45;;
49101;SDS011;34913;47.520;19.186;2022-12-24T05:02:21;53.33;;;30.25;;
49101;SDS011;34913;47.520;19.186;2022-12-24T05:04:47;51.30;;;30.10;;
49101;SDS011;34913;47.520;19.186;2022-12-24T05:07:12;50.70;;;29.73;;
49101;SDS011;34913;47.520;19.186;2022-12-24T05:09:37;46.88;;;28.02;;
49101;SDS011;34913;47.520;19.186;2022-12-24T05:12:03;50.08;;;28.65;;
49101;SDS011;34913;47.520;19.186;2022-12-24T05:14:29;49.28;;;28.13;;
49101;SDS011;34913;47.520;19.186;2022-12-24T05:16:54;44.97;;;27.23;;
49101;SDS011;34913;47.520;19.186;2022-12-24T05:19:19;45.78;;;27.15;;
49101;SDS011;34913;47.520;19.186;2022-12-24T05:21:45;47.15;;;27.02;;
49101;SDS011;34913;47.520;19.186;2022-12-24T05:24:30;45.47;;;27.25;;
49101;SDS011;34913;47.520;19.186;2022-12-24T05:27:14;43.83;;;25.60;;
49101;SDS011;34913;47.520;19.186;2022-12-24T05:29:39;46.35;;;27.27;;
49101;SDS011;34913;47.520;19.186;2022-12-24T05:32:05;48.50;;;27.88;;
49101;SDS011;34913;47.520;19.186;2022-12-24T05:34:30;45.35;;;26.27;;
49101;SDS011;34913;47.520;19.186;2022-12-24T05:36:55;43.78;;;26.55;;
49101;SDS011;34913;47.520;19.186;2022-12-24T05:39:21;43.83;;;26.13;;
49101;SDS011;34913;47.520;19.186;2022-12-24T05:41:46;44.75;;;27.42;;
49101;SDS011;34913;47.520;19.186;2022-12-24T05:44:12;41.00;;;26.13;;
49101;SDS011;34913;47.520;19.186;2022-12-24T05:46:38;44.80;;;26.52;;
49101;SDS011;34913;47.520;19.186;2022-12-24T05:49:04;47.83;;;26.85;;
49101;SDS011;34913;47.520;19.186;2022-12-24T05:51:29;40.78;;;24.80;;
49101;SDS011;34913;47.520;19.186;2022-12-24T05:53:55;46.30;;;26.60;;
49101;SDS011;34913;47.520;19.186;2022-12-24T05:56:21;42.63;;;25.45;;
49101;SDS011;34913;47.520;19.186;2022-12-24T05:58:48;43.72;;;25.75;;
49101;SDS011;34913;47.520;19.186;2022-12-24T06:01:14;42.03;;;25.00;;
49101;SDS011;34913;47.520;19.186;2022-12-24T06:03:40;40.95;;;24.85;;
49101;SDS011;34913;47.520;19.186;2022-12-24T06:06:07;40.22;;;24.70;;
49101;SDS011;34913;47.520;19.186;2022-12-24T06:08:37;44.35;;;26.50;;
49101;SDS011;34913;47.520;19.186;2022-12-24T06:11:05;43.35;;;25.05;;
49101;SDS011;34913;47.520;19.186;2022-12-24T06:13:33;43.10;;;25.73;;
49101;SDS011;34913;47.520;19.186;2022-12-24T06:15:59;40.53;;;24.63;;
49101;SDS011;34913;47.520;19.186;2022-12-24T06:18:27;38.90;;;24.42;;
49101;SDS011;34913;47.520;19.186;2022-12-24T06:20:53;38.85;;;24.75;;
49101;SDS011;34913;47.520;19.186;2022-12-24T06:23:20;39.60;;;23.52;;
49101;SDS011;34913;47.520;19.186;2022-12-24T06:25:46;39.28;;;24.50;;
49101;SDS011;34913;47.520;19.186;2022-12-24T06:28:13;46.60;;;27.20;;
49101;SDS011;34913;47.520;19.186;2022-12-24T06:30:38;44.40;;;26.55;;
49101;SDS011;34913;47.520;19.186;2022-12-24T06:33:04;42.33;;;27.02;;
49101;SDS011;34913;47.520;19.186;2022-12-24T06:35:32;42.70;;;24.95;;
49101;SDS011;34913;47.520;19.186;2022-12-24T06:37:58;41.03;;;25.77;;
49101;SDS011;34913;47.520;19.186;2022-12-24T06:40:24;50.47;;;28.05;;
49101;SDS011;34913;47.520;19.186;2022-12-24T06:42:50;44.30;;;26.67;;
49101;SDS011;34913;47.520;19.186;2022-12-24T06:45:16;51.25;;;29.38;;
49101;SDS011;34913;47.520;19.186;2022-12-24T06:47:41;46.78;;;27.85;;
49101;SDS011;34913;47.520;19.186;2022-12-24T06:50:07;43.25;;;26.25;;
49101;SDS011;34913;47.520;19.186;2022-12-24T06:52:33;48.30;;;27.58;;
49101;SDS011;34913;47.520;19.186;2022-12-24T06:54:58;44.70;;;26.17;;
49101;SDS011;34913;47.520;19.186;2022-12-24T06:57:24;48.83;;;27.85;;
49101;SDS011;34913;47.520;19.186;2022-12-24T06:59:49;44.15;;;26.48;;
49101;SDS011;34913;47.520;19.186;2022-12-24T07:02:14;41.17;;;25.45;;
49101;SDS011;34913;47.520;19.186;2022-12-24T07:04:40;44.35;;;26.38;;
49101;SDS011;34913;47.520;19.186;2022-12-24T07:07:05;40.40;;;24.17;;
49101;SDS011;34913;47.520;19.186;2022-12-24T07:09:30;41.88;;;25.50;;
49101;SDS011;34913;47.520;19.186;2022-12-24T07:11:56;42.92;;;25.65;;
49101;SDS011;34913;47.520;19.186;2022-12-24T07:14:21;52.40;;;30.15;;
49101;SDS011;34913;47.520;19.186;2022-12-24T07:16:47;51.95;;;31.00;;
49101;SDS011;34913;47.520;19.186;2022-12-24T07:19:13;50.67;;;28.60;;
49101;SDS011;34913;47.520;19.186;2022-12-24T07:21:39;47.92;;;27.83;;
49101;SDS011;34913;47.520;19.186;2022-12-24T07:24:04;47.22;;;28.75;;
49101;SDS011;34913;47.520;19.186;2022-12-24T07:26:30;48.08;;;28.52;;
49101;SDS011;34913;47.520;19.186;2022-12-24T07:28:55;45.88;;;27.15;;
49101;SDS011;34913;47.520;19.186;2022-12-24T07:31:21;43.92;;;26.70;;
49101;SDS011;34913;47.520;19.186;2022-12-24T07:33:46;47.45;;;27.15;;
49101;SDS011;34913;47.520;19.186;2022-12-24T07:36:19;45.17;;;26.40;;
49101;SDS011;34913;47.520;19.186;2022-12-24T07:38:45;43.40;;;26.02;;
49101;SDS011;34913;47.520;19.186;2022-12-24T07:41:12;42.03;;;25.92;;
49101;SDS011;34913;47.520;19.186;2022-12-24T07:43:37;43.53;;;25.25;;
49101;SDS011;34913;47.520;19.186;2022-12-24T07:46:03;42.00;;;25.30;;
49101;SDS011;34913;47.520;19.186;2022-12-24T07:48:29;44.65;;;26.48;;
49101;SDS011;34913;47.520;19.186;2022-12-24T07:50:56;41.67;;;25.80;;
49101;SDS011;34913;47.520;19.186;2022-12-24T07:53:21;45.88;;;26.65;;
49101;SDS011;34913;47.520;19.186;2022-12-24T07:55:47;42.90;;;26.55;;
49101;SDS011;34913;47.520;19.186;2022-12-24T07:58:12;50.30;;;27.85;;
49101;SDS011;34913;47.520;19.186;2022-12-24T08:00:38;84.88;;;37.50;;
49101;SDS011;34913;47.520;19.186;2022-12-24T08:03:03;138.75;;;57.50;;
49101;SDS011;34913;47.520;19.186;2022-12-24T08:05:32;112.20;;;50.03;;
49101;SDS011;34913;47.520;19.186;2022-12-24T08:07:59;117.57;;;51.13;;
49101;SDS011;34913;47.520;19.186;2022-12-24T08:10:24;116.65;;;51.10;;
49101;SDS011;34913;47.520;19.186;2022-12-24T08:12:50;121.45;;;53.95;;
49101;SDS011;34913;47.520;19.186;2022-12-24T08:15:15;113.88;;;51.33;;
49101;SDS011;34913;47.520;19.186;2022-12-24T08:17:41;72.90;;;36.65;;
49101;SDS011;34913;47.520;19.186;2022-12-24T08:20:07;58.03;;;29.83;;
49101;SDS011;34913;47.520;19.186;2022-12-24T08:22:32;37.65;;;21.00;;
49101;SDS011;34913;47.520;19.186;2022-12-24T08:24:58;23.27;;;14.35;;
49101;SDS011;34913;47.520;19.186;2022-12-24T08:27:23;18.90;;;12.30;;
49101;SDS011;34913;47.520;19.186;2022-12-24T08:29:49;17.58;;;9.93;;
49101;SDS011;34913;47.520;19.186;2022-12-24T08:32:14;14.23;;;8.25;;
49101;SDS011;34913;47.520;19.186;2022-12-24T08:34:39;13.52;;;8.20;;
49101;SDS011;34913;47.520;19.186;2022-12-24T08:37:05;14.55;;;8.07;;
49101;SDS011;34913;47.520;19.186;2022-12-24T08:39:30;10.95;;;6.80;;
49101;SDS011;34913;47.520;19.186;2022-12-24T08:41:56;7.97;;;5.78;;
49101;SDS011;34913;47.520;19.186;2022-12-24T08:44:21;9.50;;;5.50;;
49101;SDS011;34913;47.520;19.186;2022-12-24T08:46:47;9.05;;;5.25;;
49101;SDS011;34913;47.520;19.186;2022-12-24T08:49:12;8.68;;;4.90;;
49101;SDS011;34913;47.520;19.186;2022-12-24T08:51:38;6.78;;;3.97;;
49101;SDS011;34913;47.520;19.186;2022-12-24T08:54:03;6.75;;;4.22;;
49101;SDS011;34913;47.520;19.186;2022-12-24T08:56:29;8.00;;;4.95;;
49101;SDS011;34913;47.520;19.186;2022-12-24T08:58:54;8.43;;;5.57;;
49101;SDS011;34913;47.520;19.186;2022-12-24T09:01:20;9.13;;;5.90;;
49101;SDS011;34913;47.520;19.186;2022-12-24T09:03:45;8.98;;;5.88;;
49101;SDS011;34913;47.520;19.186;2022-12-24T09:06:12;9.70;;;5.85;;
49101;SDS011;34913;47.520;19.186;2022-12-24T09:08:38;10.60;;;7.25;;
49101;SDS011;34913;47.520;19.186;2022-12-24T09:11:11;14.13;;;9.27;;
49101;SDS011;34913;47.520;19.186;2022-12-24T09:13:38;11.48;;;8.27;;
49101;SDS011;34913;47.520;19.186;2022-12-24T09:16:04;11.00;;;7.32;;
49101;SDS011;34913;47.520;19.186;2022-12-24T09:18:30;10.10;;;6.85;;
49101;SDS011;34913;47.520;19.186;2022-12-24T09:21:03;12.35;;;7.35;;
49101;SDS011;34913;47.520;19.186;2022-12-24T09:23:30;10.68;;;7.72;;
49101;SDS011;34913;47.520;19.186;2022-12-24T09:25:57;10.23;;;7.70;;
49101;SDS011;34913;47.520;19.186;2022-12-24T09:28:23;10.82;;;7.88;;
49101;SDS011;34913;47.520;19.186;2022-12-24T09:30:58;11.77;;;8.20;;
49101;SDS011;34913;47.520;19.186;2022-12-24T09:33:25;18.05;;;8.65;;
49101;SDS011;34913;47.520;19.186;2022-12-24T09:35:56;13.25;;;8.20;;
49101;SDS011;34913;47.520;19.186;2022-12-24T09:38:21;11.07;;;7.75;;
49101;SDS011;34913;47.520;19.186;2022-12-24T09:40:48;10.00;;;7.50;;
49101;SDS011;34913;47.520;19.186;2022-12-24T09:48:46;11.35;;;7.43;;
49101;SDS011;34913;47.520;19.186;2022-12-24T09:51:21;10.90;;;7.05;;
49101;SDS011;34913;47.520;19.186;2022-12-24T09:56:26;9.68;;;6.35;;
49101;SDS011;34913;47.520;19.186;2022-12-24T09:59:04;9.65;;;6.38;;
49101;SDS011;34913;47.520;19.186;2022-12-24T10:01:35;9.80;;;5.80;;
49101;SDS011;34913;47.520;19.186;2022-12-24T10:04:02;11.00;;;6.13;;
49101;SDS011;34913;47.520;19.186;2022-12-24T10:09:15;9.27;;;5.47;;
49101;SDS011;34913;47.520;19.186;2022-12-24T10:11:53;8.73;;;4.78;;
49101;SDS011;34913;47.520;19.186;2022-12-24T10:17:03;8.07;;;5.22;;
49101;SDS011;34913;47.520;19.186;2022-12-24T10:25:29;8.73;;;4.82;;
49101;SDS011;34913;47.520;19.186;2022-12-24T10:27:56;11.43;;;5.60;;
49101;SDS011;34913;47.520;19.186;2022-12-24T10:30:25;9.77;;;5.25;;
49101;SDS011;34913;47.520;19.186;2022-12-24T10:32:51;11.80;;;6.70;;
49101;SDS011;34913;47.520;19.186;2022-12-24T10:35:22;11.63;;;7.07;;
49101;SDS011;34913;47.520;19.186;2022-12-24T10:37:53;13.93;;;7.20;;
49101;SDS011;34913;47.520;19.186;2022-12-24T10:40:26;12.77;;;7.25;;
49101;SDS011;34913;47.520;19.186;2022-12-24T10:42:59;11.52;;;6.88;;
49101;SDS011;34913;47.520;19.186;2022-12-24T10:45:26;10.90;;;6.25;;
49101;SDS011;34913;47.520;19.186;2022-12-24T10:48:02;8.68;;;6.05;;
49101;SDS011;34913;47.520;19.186;2022-12-24T10:53:26;12.23;;;6.63;;
49101;SDS011;34913;47.520;19.186;2022-12-24T10:56:09;12.15;;;7.15;;
49101;SDS011;34913;47.520;19.186;2022-12-24T10:58:41;9.77;;;6.68;;
49101;SDS011;34913;47.520;19.186;2022-12-24T11:01:08;8.32;;;5.25;;
49101;SDS011;34913;47.520;19.186;2022-12-24T11:03:34;7.95;;;4.28;;
49101;SDS011;34913;47.520;19.186;2022-12-24T11:06:15;8.52;;;4.50;;
49101;SDS011;34913;47.520;19.186;2022-12-24T11:08:45;6.03;;;3.97;;
49101;SDS011;34913;47.520;19.186;2022-12-24T11:16:28;4.50;;;2.67;;
49101;SDS011;34913;47.520;19.186;2022-12-24T11:19:02;5.88;;;2.20;;
49101;SDS011;34913;47.520;19.186;2022-12-24T11:21:31;3.75;;;1.80;;
49101;SDS011;34913;47.520;19.186;2022-12-24T11:24:04;3.63;;;1.77;;
49101;SDS011;34913;47.520;19.186;2022-12-24T11:26:32;3.00;;;1.77;;
49101;SDS011;34913;47.520;19.186;2022-12-24T11:29:05;3.47;;;1.40;;
49101;SDS011;34913;47.520;19.186;2022-12-24T11:31:37;3.70;;;1.73;;
49101;SDS011;34913;47.520;19.186;2022-12-24T11:34:21;3.30;;;1.30;;
49101;SDS011;34913;47.520;19.186;2022-12-24T11:36:50;3.95;;;1.10;;
49101;SDS011;34913;47.520;19.186;2022-12-24T11:39:20;3.88;;;1.30;;
49101;SDS011;34913;47.520;19.186;2022-12-24T11:41:50;5.05;;;1.50;;
49101;SDS011;34913;47.520;19.186;2022-12-24T11:44:26;5.70;;;1.52;;
49101;SDS011;34913;47.520;19.186;2022-12-24T11:46:53;4.70;;;1.80;;
49101;SDS011;34913;47.520;19.186;2022-12-24T11:49:23;3.35;;;1.50;;
49101;SDS011;34913;47.520;19.186;2022-12-24T11:54:36;3.92;;;1.30;;
49101;SDS011;34913;47.520;19.186;2022-12-24T11:57:10;6.45;;;1.45;;
49101;SDS011;34913;47.520;19.186;2022-12-24T11:59:41;4.25;;;1.25;;
49101;SDS011;34913;47.520;19.186;2022-12-24T12:04:45;5.75;;;1.67;;
49101;SDS011;34913;47.520;19.186;2022-12-24T12:07:23;4.80;;;1.40;;
49101;SDS011;34913;47.520;19.186;2022-12-24T12:10:35;5.53;;;1.45;;
49101;SDS011;34913;47.520;19.186;2022-12-24T12:13:13;4.32;;;1.20;;
49101;SDS011;34913;47.520;19.186;2022-12-24T12:15:55;6.05;;;1.67;;
49101;SDS011;34913;47.520;19.186;2022-12-24T12:18:31;4.55;;;1.48;;
49101;SDS011;34913;47.520;19.186;2022-12-24T12:21:05;4.35;;;1.50;;
49101;SDS011;34913;47.520;19.186;2022-12-24T12:23:37;4.95;;;1.65;;
49101;SDS011;34913;47.520;19.186;2022-12-24T12:28:53;3.22;;;1.50;;
49101;SDS011;34913;47.520;19.186;2022-12-24T12:31:25;5.65;;;1.42;;
49101;SDS011;34913;47.520;19.186;2022-12-24T12:36:35;5.43;;;1.40;;
49101;SDS011;34913;47.520;19.186;2022-12-24T12:39:08;3.25;;;1.50;;
49101;SDS011;34913;47.520;19.186;2022-12-24T12:41:38;4.70;;;1.60;;
49101;SDS011;34913;47.520;19.186;2022-12-24T12:50:06;4.97;;;1.50;;
49101;SDS011;34913;47.520;19.186;2022-12-24T12:58:11;3.60;;;1.35;;
49101;SDS011;34913;47.520;19.186;2022-12-24T13:00:45;5.57;;;1.75;;
49101;SDS011;34913;47.520;19.186;2022-12-24T13:12:11;3.87;;;1.50;;
49101;SDS011;34913;47.520;19.186;2022-12-24T13:25:35;7.10;;;3.00;;
49101;SDS011;34913;47.520;19.186;2022-12-24T13:33:52;5.38;;;2.15;;
49101;SDS011;34913;47.520;19.186;2022-12-24T13:36:20;3.60;;;1.60;;
49101;SDS011;34913;47.520;19.186;2022-12-24T13:38:55;3.65;;;1.50;;
49101;SDS011;34913;47.520;19.186;2022-12-24T13:49:28;4.18;;;2.33;;
49101;SDS011;34913;47.520;19.186;2022-12-24T13:52:29;4.47;;;2.00;;
49101;SDS011;34913;47.520;19.186;2022-12-24T13:57:22;6.30;;;3.58;;
49101;SDS011;34913;47.520;19.186;2022-12-24T13:59:54;8.50;;;3.10;;
49101;SDS011;34913;47.520;19.186;2022-12-24T14:02:26;4.00;;;1.50;;
49101;SDS011;34913;47.520;19.186;2022-12-24T14:04:56;3.65;;;1.80;;
49101;SDS011;34913;47.520;19.186;2022-12-24T14:07:26;3.40;;;1.38;;
49101;SDS011;34913;47.520;19.186;2022-12-24T14:09:51;6.40;;;2.20;;
49101;SDS011;34913;47.520;19.186;2022-12-24T14:12:30;6.75;;;1.90;;
49101;SDS011;34913;47.520;19.186;2022-12-24T14:14:58;3.83;;;1.30;;
49101;SDS011;34913;47.520;19.186;2022-12-24T14:18:02;5.55;;;1.60;;
49101;SDS011;34913;47.520;19.186;2022-12-24T14:20:27;4.35;;;1.70;;
49101;SDS011;34913;47.520;19.186;2022-12-24T14:22:56;4.72;;;1.73;;
49101;SDS011;34913;47.520;19.186;2022-12-24T14:25:23;4.85;;;1.42;;
49101;SDS011;34913;47.520;19.186;2022-12-24T14:27:55;7.18;;;2.70;;
49101;SDS011;34913;47.520;19.186;2022-12-24T14:30:28;6.43;;;2.78;;
49101;SDS011;34913;47.520;19.186;2022-12-24T14:32:54;4.95;;;2.25;;
49101;SDS011;34913;47.520;19.186;2022-12-24T14:35:27;3.47;;;2.22;;
49101;SDS011;34913;47.520;19.186;2022-12-24T14:40:56;4.22;;;2.00;;
49101;SDS011;34913;47.520;19.186;2022-12-24T14:46:32;5.90;;;2.28;;
49101;SDS011;34913;47.520;19.186;2022-12-24T14:49:05;4.13;;;2.42;;
49101;SDS011;34913;47.520;19.186;2022-12-24T14:51:55;7.65;;;3.17;;
49101;SDS011;34913;47.520;19.186;2022-12-24T14:54:37;4.07;;;2.33;;
49101;SDS011;34913;47.520;19.186;2022-12-24T15:05:05;11.25;;;3.90;;
49101;SDS011;34913;47.520;19.186;2022-12-24T15:07:44;8.77;;;3.75;;
49101;SDS011;34913;47.520;19.186;2022-12-24T15:10:26;7.85;;;3.50;;
49101;SDS011;34913;47.520;19.186;2022-12-24T15:13:00;8.45;;;3.58;;
49101;SDS011;34913;47.520;19.186;2022-12-24T15:15:28;7.20;;;3.45;;
49101;SDS011;34913;47.520;19.186;2022-12-24T15:17:53;9.60;;;3.63;;
49101;SDS011;34913;47.520;19.186;2022-12-24T15:20:20;13.43;;;3.63;;
49101;SDS011;34913;47.520;19.186;2022-12-24T15:22:49;9.18;;;3.90;;
49101;SDS011;34913;47.520;19.186;2022-12-24T15:27:43;7.82;;;4.00;;
49101;SDS011;34913;47.520;19.186;2022-12-24T15:30:16;13.60;;;3.97;;
49101;SDS011;34913;47.520;19.186;2022-12-24T15:32:44;11.80;;;3.95;;
49101;SDS011;34913;47.520;19.186;2022-12-24T15:37:54;10.10;;;4.15;;
49101;SDS011;34913;47.520;19.186;2022-12-24T15:40:22;12.68;;;4.10;;
49101;SDS011;34913;47.520;19.186;2022-12-24T15:42:49;14.07;;;4.30;;
49101;SDS011;34913;47.520;19.186;2022-12-24T15:45:16;13.50;;;4.55;;
49101;SDS011;34913;47.520;19.186;2022-12-24T15:48:00;9.02;;;3.90;;
49101;SDS011;34913;47.520;19.186;2022-12-24T15:50:34;11.15;;;4.68;;
49101;SDS011;34913;47.520;19.186;2022-12-24T15:53:01;12.30;;;4.78;;
49101;SDS011;34913;47.520;19.186;2022-12-24T15:58:12;9.40;;;4.80;;
49101;SDS011;34913;47.520;19.186;2022-12-24T16:01:22;9.90;;;4.78;;
49101;SDS011;34913;47.520;19.186;2022-12-24T16:06:17;11.85;;;4.68;;
49101;SDS011;34913;47.520;19.186;2022-12-24T16:08:43;12.45;;;6.63;;
49101;SDS011;34913;47.520;19.186;2022-12-24T16:14:21;14.55;;;8.52;;
49101;SDS011;34913;47.520;19.186;2022-12-24T16:16:46;17.65;;;8.77;;
49101;SDS011;34913;47.520;19.186;2022-12-24T16:19:16;20.60;;;11.10;;
49101;SDS011;34913;47.520;19.186;2022-12-24T16:21:48;17.77;;;10.13;;
49101;SDS011;34913;47.520;19.186;2022-12-24T16:24:17;16.08;;;9.25;;
49101;SDS011;34913;47.520;19.186;2022-12-24T16:26:47;17.27;;;9.55;;
49101;SDS011;34913;47.520;19.186;2022-12-24T16:29:12;16.00;;;8.45;;
49101;SDS011;34913;47.520;19.186;2022-12-24T16:34:12;15.65;;;7.85;;
49101;SDS011;34913;47.520;19.186;2022-12-24T16:36:39;14.48;;;8.23;;
49101;SDS011;34913;47.520;19.186;2022-12-24T16:39:11;18.17;;;8.50;;
49101;SDS011;34913;47.520;19.186;2022-12-24T16:41:49;17.23;;;7.57;;
49101;SDS011;34913;47.520;19.186;2022-12-24T16:44:37;11.90;;;6.07;;
49101;SDS011;34913;47.520;19.186;2022-12-24T16:47:08;11.20;;;5.70;;
49101;SDS011;34913;47.520;19.186;2022-12-24T16:49:36;12.32;;;5.75;;
49101;SDS011;34913;47.520;19.186;2022-12-24T16:52:03;10.82;;;5.80;;
49101;SDS011;34913;47.520;19.186;2022-12-24T16:54:38;13.40;;;5.47;;
49101;SDS011;34913;47.520;19.186;2022-12-24T16:57:03;10.57;;;5.63;;
49101;SDS011;34913;47.520;19.186;2022-12-24T16:59:29;11.30;;;5.30;;